Terminal Aerodrome Forecast
Issued by NWS Wilmington, OH

Current Version | Previous Version | Text Only | Print | Product List | Glossary Off
Versions: 1 2 3 4 5 6 7 8 9 10 11 12 13 14 15 16 17 18 19 20 21 22 23 24

000
FTUS41 KILN 282331
TAFDAY
TAF
KDAY 282331Z 2900/2924 24010KT P6SM BKN045
     FM290100 25008KT P6SM -TSRA BKN045CB
      TEMPO 2901/2903 32025G35KT 3SM -TSRA OVC035CB
     FM290300 29008KT P6SM BKN080
     FM290500 25006KT P6SM SCT250
     FM291300 21008KT P6SM SCT250
     FM291600 23013G20KT P6SM BKN250=

USA.gov is the U.S. government's official web portal to all federal, state and local government web resources and services.